sensor_id;sensor_type;location;lat;lon;timestamp;temperature;humidity
10316;DHT22;5203;48.976;8.306;2023-06-24T00:02:11;20.50;72.30
10316;DHT22;5203;48.976;8.306;2023-06-24T00:04:37;20.50;72.30
10316;DHT22;5203;48.976;8.306;2023-06-24T00:07:02;20.40;72.30
10316;DHT22;5203;48.976;8.306;2023-06-24T00:09:28;20.40;72.50
10316;DHT22;5203;48.976;8.306;2023-06-24T00:11:55;20.40;72.60
10316;DHT22;5203;48.976;8.306;2023-06-24T00:14:21;20.20;72.90
10316;DHT22;5203;48.976;8.306;2023-06-24T00:16:50;20.20;73.10
10316;DHT22;5203;48.976;8.306;2023-06-24T00:19:24;19.90;74.80
10316;DHT22;5203;48.976;8.306;2023-06-24T00:21:51;19.80;75.00
10316;DHT22;5203;48.976;8.306;2023-06-24T00:24:18;19.70;75.50
10316;DHT22;5203;48.976;8.306;2023-06-24T00:26:46;19.90;75.70
10316;DHT22;5203;48.976;8.306;2023-06-24T00:29:11;19.90;74.90
10316;DHT22;5203;48.976;8.306;2023-06-24T00:31:37;20.00;74.10
10316;DHT22;5203;48.976;8.306;2023-06-24T00:34:02;19.80;74.90
10316;DHT22;5203;48.976;8.306;2023-06-24T00:36:28;19.90;74.60
10316;DHT22;5203;48.976;8.306;2023-06-24T00:38:55;19.90;74.40
10316;DHT22;5203;48.976;8.306;2023-06-24T00:41:22;19.90;74.10
10316;DHT22;5203;48.976;8.306;2023-06-24T00:43:48;20.00;73.80
10316;DHT22;5203;48.976;8.306;2023-06-24T00:46:14;20.00;73.50
10316;DHT22;5203;48.976;8.306;2023-06-24T00:48:41;20.10;73.00
10316;DHT22;5203;48.976;8.306;2023-06-24T00:51:06;20.10;72.90
10316;DHT22;5203;48.976;8.306;2023-06-24T00:53:32;20.10;72.80
10316;DHT22;5203;48.976;8.306;2023-06-24T00:55:58;20.00;72.70
10316;DHT22;5203;48.976;8.306;2023-06-24T00:58:31;19.80;74.00
10316;DHT22;5203;48.976;8.306;2023-06-24T01:00:58;19.80;74.20
10316;DHT22;5203;48.976;8.306;2023-06-24T01:03:27;19.70;75.00
10316;DHT22;5203;48.976;8.306;2023-06-24T01:05:54;19.70;75.20
10316;DHT22;5203;48.976;8.306;2023-06-24T01:08:20;19.70;75.00
10316;DHT22;5203;48.976;8.306;2023-06-24T01:10:49;19.70;74.80
10316;DHT22;5203;48.976;8.306;2023-06-24T01:13:15;19.60;74.70
10316;DHT22;5203;48.976;8.306;2023-06-24T01:15:41;19.50;75.20
10316;DHT22;5203;48.976;8.306;2023-06-24T01:34:57;19.40;75.60
10316;DHT22;5203;48.976;8.306;2023-06-24T01:37:28;19.50;75.10
10316;DHT22;5203;48.976;8.306;2023-06-24T01:40:12;19.40;75.20
10316;DHT22;5203;48.976;8.306;2023-06-24T01:42:42;19.30;75.40
10316;DHT22;5203;48.976;8.306;2023-06-24T01:45:12;19.20;75.20
10316;DHT22;5203;48.976;8.306;2023-06-24T01:47:41;19.10;75.30
10316;DHT22;5203;48.976;8.306;2023-06-24T01:50:10;19.20;75.00
10316;DHT22;5203;48.976;8.306;2023-06-24T01:52:38;19.10;75.20
10316;DHT22;5203;48.976;8.306;2023-06-24T01:55:07;19.20;75.20
10316;DHT22;5203;48.976;8.306;2023-06-24T01:57:36;19.10;75.10
10316;DHT22;5203;48.976;8.306;2023-06-24T02:00:03;19.20;75.00
10316;DHT22;5203;48.976;8.306;2023-06-24T02:02:33;19.20;75.10
10316;DHT22;5203;48.976;8.306;2023-06-24T02:04:59;19.20;74.90
10316;DHT22;5203;48.976;8.306;2023-06-24T02:07:28;19.10;74.90
10316;DHT22;5203;48.976;8.306;2023-06-24T02:09:55;19.10;75.50
10316;DHT22;5203;48.976;8.306;2023-06-24T02:12:22;19.20;75.20
10316;DHT22;5203;48.976;8.306;2023-06-24T02:14:49;19.10;74.40
10316;DHT22;5203;48.976;8.306;2023-06-24T02:17:15;18.90;75.60
10316;DHT22;5203;48.976;8.306;2023-06-24T02:19:42;18.70;76.80
10316;DHT22;5203;48.976;8.306;2023-06-24T02:22:08;18.70;76.70
10316;DHT22;5203;48.976;8.306;2023-06-24T02:24:37;18.60;76.90
10316;DHT22;5203;48.976;8.306;2023-06-24T02:27:04;18.60;76.90
10316;DHT22;5203;48.976;8.306;2023-06-24T02:29:31;18.50;77.10
10316;DHT22;5203;48.976;8.306;2023-06-24T02:31:57;18.50;77.30
10316;DHT22;5203;48.976;8.306;2023-06-24T02:34:23;18.50;77.50
10316;DHT22;5203;48.976;8.306;2023-06-24T02:36:49;18.60;77.30
10316;DHT22;5203;48.976;8.306;2023-06-24T02:39:15;18.60;77.00
10316;DHT22;5203;48.976;8.306;2023-06-24T02:41:41;18.50;77.30
10316;DHT22;5203;48.976;8.306;2023-06-24T02:44:07;18.50;76.90
10316;DHT22;5203;48.976;8.306;2023-06-24T02:46:34;18.50;77.00
10316;DHT22;5203;48.976;8.306;2023-06-24T02:49:02;18.50;77.10
10316;DHT22;5203;48.976;8.306;2023-06-24T02:51:28;18.50;77.20
10316;DHT22;5203;48.976;8.306;2023-06-24T02:53:55;18.60;76.90
10316;DHT22;5203;48.976;8.306;2023-06-24T02:56:24;18.70;76.40
10316;DHT22;5203;48.976;8.306;2023-06-24T02:58:52;18.80;76.20
10316;DHT22;5203;48.976;8.306;2023-06-24T03:01:18;18.60;75.70
10316;DHT22;5203;48.976;8.306;2023-06-24T03:03:52;18.60;76.30
10316;DHT22;5203;48.976;8.306;2023-06-24T03:06:18;18.60;76.30
10316;DHT22;5203;48.976;8.306;2023-06-24T03:08:45;18.70;75.80
10316;DHT22;5203;48.976;8.306;2023-06-24T03:11:14;18.70;76.20
10316;DHT22;5203;48.976;8.306;2023-06-24T03:13:40;18.60;76.30
10316;DHT22;5203;48.976;8.306;2023-06-24T03:16:06;18.50;76.20
10316;DHT22;5203;48.976;8.306;2023-06-24T03:18:39;18.60;76.20
10316;DHT22;5203;48.976;8.306;2023-06-24T03:21:04;18.50;76.90
10316;DHT22;5203;48.976;8.306;2023-06-24T03:23:31;18.60;76.70
10316;DHT22;5203;48.976;8.306;2023-06-24T03:25:57;18.60;76.20
10316;DHT22;5203;48.976;8.306;2023-06-24T03:28:23;18.60;76.30
10316;DHT22;5203;48.976;8.306;2023-06-24T03:30:48;18.50;76.90
10316;DHT22;5203;48.976;8.306;2023-06-24T03:33:14;18.50;76.40
10316;DHT22;5203;48.976;8.306;2023-06-24T03:35:42;18.40;76.70
10316;DHT22;5203;48.976;8.306;2023-06-24T03:38:08;18.50;76.50
10316;DHT22;5203;48.976;8.306;2023-06-24T03:40:34;18.50;77.80
10316;DHT22;5203;48.976;8.306;2023-06-24T03:42:59;18.50;77.10
10316;DHT22;5203;48.976;8.306;2023-06-24T03:45:25;18.50;77.60
10316;DHT22;5203;48.976;8.306;2023-06-24T03:47:51;18.40;77.20
10316;DHT22;5203;48.976;8.306;2023-06-24T03:50:17;18.30;77.80
10316;DHT22;5203;48.976;8.306;2023-06-24T03:52:42;18.30;77.80
10316;DHT22;5203;48.976;8.306;2023-06-24T03:55:10;18.30;77.90
10316;DHT22;5203;48.976;8.306;2023-06-24T03:57:36;18.20;78.70
10316;DHT22;5203;48.976;8.306;2023-06-24T04:00:02;18.00;79.40
10316;DHT22;5203;48.976;8.306;2023-06-24T04:02:37;18.00;79.60
10316;DHT22;5203;48.976;8.306;2023-06-24T04:05:03;18.10;79.30
10316;DHT22;5203;48.976;8.306;2023-06-24T04:07:31;18.10;79.20
10316;DHT22;5203;48.976;8.306;2023-06-24T04:09:57;18.10;79.40
10316;DHT22;5203;48.976;8.306;2023-06-24T04:12:23;18.10;79.50
10316;DHT22;5203;48.976;8.306;2023-06-24T04:14:49;18.20;79.20
10316;DHT22;5203;48.976;8.306;2023-06-24T04:17:15;18.20;79.10
10316;DHT22;5203;48.976;8.306;2023-06-24T04:19:40;18.30;79.40
10316;DHT22;5203;48.976;8.306;2023-06-24T04:22:07;18.20;79.40
10316;DHT22;5203;48.976;8.306;2023-06-24T04:24:33;18.30;79.00
10316;DHT22;5203;48.976;8.306;2023-06-24T04:26:58;18.30;79.40
10316;DHT22;5203;48.976;8.306;2023-06-24T04:29:24;18.30;79.20
10316;DHT22;5203;48.976;8.306;2023-06-24T04:31:50;18.30;79.20
10316;DHT22;5203;48.976;8.306;2023-06-24T04:34:15;18.30;79.40
10316;DHT22;5203;48.976;8.306;2023-06-24T04:36:41;18.10;80.40
10316;DHT22;5203;48.976;8.306;2023-06-24T04:39:07;18.00;81.20
10316;DHT22;5203;48.976;8.306;2023-06-24T04:41:33;17.90;81.50
10316;DHT22;5203;48.976;8.306;2023-06-24T04:43:59;17.90;82.20
10316;DHT22;5203;48.976;8.306;2023-06-24T04:46:24;18.00;81.70
10316;DHT22;5203;48.976;8.306;2023-06-24T04:48:50;18.00;81.70
10316;DHT22;5203;48.976;8.306;2023-06-24T04:51:16;18.00;81.70
10316;DHT22;5203;48.976;8.306;2023-06-24T04:53:42;17.90;82.50
10316;DHT22;5203;48.976;8.306;2023-06-24T04:56:07;18.00;82.60
10316;DHT22;5203;48.976;8.306;2023-06-24T04:58:33;18.00;81.90
10316;DHT22;5203;48.976;8.306;2023-06-24T05:00:59;18.10;82.40
10316;DHT22;5203;48.976;8.306;2023-06-24T05:03:24;18.20;81.30
10316;DHT22;5203;48.976;8.306;2023-06-24T05:05:50;18.40;80.80
10316;DHT22;5203;48.976;8.306;2023-06-24T05:08:16;18.40;81.00
10316;DHT22;5203;48.976;8.306;2023-06-24T05:10:41;18.40;80.80
10316;DHT22;5203;48.976;8.306;2023-06-24T05:13:07;18.50;80.60
10316;DHT22;5203;48.976;8.306;2023-06-24T05:15:33;18.70;80.40
10316;DHT22;5203;48.976;8.306;2023-06-24T05:17:58;18.80;79.90
10316;DHT22;5203;48.976;8.306;2023-06-24T05:20:24;18.70;79.80
10316;DHT22;5203;48.976;8.306;2023-06-24T05:22:50;18.80;79.80
10316;DHT22;5203;48.976;8.306;2023-06-24T05:25:16;18.80;80.40
10316;DHT22;5203;48.976;8.306;2023-06-24T05:27:42;18.80;79.70
10316;DHT22;5203;48.976;8.306;2023-06-24T05:30:10;18.90;80.10
10316;DHT22;5203;48.976;8.306;2023-06-24T05:32:36;18.90;80.90
10316;DHT22;5203;48.976;8.306;2023-06-24T05:35:01;19.00;81.00
10316;DHT22;5203;48.976;8.306;2023-06-24T05:37:27;19.00;81.00
10316;DHT22;5203;48.976;8.306;2023-06-24T05:39:54;19.10;80.90
10316;DHT22;5203;48.976;8.306;2023-06-24T05:42:20;19.20;79.90
10316;DHT22;5203;48.976;8.306;2023-06-24T05:44:48;19.20;78.40
10316;DHT22;5203;48.976;8.306;2023-06-24T05:47:14;19.30;78.70
10316;DHT22;5203;48.976;8.306;2023-06-24T05:49:39;19.30;78.40
10316;DHT22;5203;48.976;8.306;2023-06-24T05:52:05;19.40;77.60
10316;DHT22;5203;48.976;8.306;2023-06-24T05:54:31;19.50;77.90
10316;DHT22;5203;48.976;8.306;2023-06-24T05:56:56;19.50;78.60
10316;DHT22;5203;48.976;8.306;2023-06-24T05:59:22;19.50;78.90
10316;DHT22;5203;48.976;8.306;2023-06-24T06:01:48;19.60;79.10
10316;DHT22;5203;48.976;8.306;2023-06-24T06:04:13;19.60;77.60
10316;DHT22;5203;48.976;8.306;2023-06-24T06:06:39;19.60;77.90
10316;DHT22;5203;48.976;8.306;2023-06-24T06:09:05;19.70;77.90
10316;DHT22;5203;48.976;8.306;2023-06-24T06:11:31;19.80;77.40
10316;DHT22;5203;48.976;8.306;2023-06-24T06:13:57;19.90;77.20
10316;DHT22;5203;48.976;8.306;2023-06-24T06:16:22;19.90;77.10
10316;DHT22;5203;48.976;8.306;2023-06-24T06:18:49;19.80;77.40
10316;DHT22;5203;48.976;8.306;2023-06-24T06:21:14;19.90;75.70
10316;DHT22;5203;48.976;8.306;2023-06-24T06:23:40;20.00;76.20
10316;DHT22;5203;48.976;8.306;2023-06-24T06:26:06;20.10;76.70
10316;DHT22;5203;48.976;8.306;2023-06-24T06:28:31;20.20;75.30
10316;DHT22;5203;48.976;8.306;2023-06-24T06:30:57;20.40;76.10
10316;DHT22;5203;48.976;8.306;2023-06-24T06:33:22;20.50;74.90
10316;DHT22;5203;48.976;8.306;2023-06-24T06:35:48;20.50;75.20
10316;DHT22;5203;48.976;8.306;2023-06-24T06:38:14;20.60;74.90
10316;DHT22;5203;48.976;8.306;2023-06-24T06:40:39;20.80;73.90
10316;DHT22;5203;48.976;8.306;2023-06-24T06:43:06;20.90;73.20
10316;DHT22;5203;48.976;8.306;2023-06-24T06:45:31;21.00;71.90
10316;DHT22;5203;48.976;8.306;2023-06-24T06:47:57;21.00;71.90
10316;DHT22;5203;48.976;8.306;2023-06-24T06:50:23;21.10;71.60
10316;DHT22;5203;48.976;8.306;2023-06-24T06:52:48;21.10;71.30
10316;DHT22;5203;48.976;8.306;2023-06-24T06:55:14;21.20;70.80
10316;DHT22;5203;48.976;8.306;2023-06-24T06:57:40;21.20;70.80
10316;DHT22;5203;48.976;8.306;2023-06-24T07:00:05;21.20;70.60
10316;DHT22;5203;48.976;8.306;2023-06-24T07:02:32;21.30;69.90
10316;DHT22;5203;48.976;8.306;2023-06-24T07:04:57;21.40;69.70
10316;DHT22;5203;48.976;8.306;2023-06-24T07:07:24;21.50;69.40
10316;DHT22;5203;48.976;8.306;2023-06-24T07:09:50;21.60;69.80
10316;DHT22;5203;48.976;8.306;2023-06-24T07:12:15;21.70;69.80
10316;DHT22;5203;48.976;8.306;2023-06-24T07:14:41;21.80;70.20
10316;DHT22;5203;48.976;8.306;2023-06-24T07:17:07;22.00;69.70
10316;DHT22;5203;48.976;8.306;2023-06-24T07:19:33;22.10;69.40
10316;DHT22;5203;48.976;8.306;2023-06-24T07:21:59;22.20;69.60
10316;DHT22;5203;48.976;8.306;2023-06-24T07:24:24;22.30;69.30
10316;DHT22;5203;48.976;8.306;2023-06-24T07:26:50;22.30;68.90
10316;DHT22;5203;48.976;8.306;2023-06-24T07:29:15;22.40;69.00
10316;DHT22;5203;48.976;8.306;2023-06-24T07:31:41;22.50;64.50
10316;DHT22;5203;48.976;8.306;2023-06-24T07:34:06;22.50;66.90
10316;DHT22;5203;48.976;8.306;2023-06-24T07:36:32;22.70;67.90
10316;DHT22;5203;48.976;8.306;2023-06-24T07:38:58;22.70;65.60
10316;DHT22;5203;48.976;8.306;2023-06-24T07:41:23;22.70;65.50
10316;DHT22;5203;48.976;8.306;2023-06-24T07:43:49;22.70;67.60
10316;DHT22;5203;48.976;8.306;2023-06-24T07:46:15;22.80;67.40
10316;DHT22;5203;48.976;8.306;2023-06-24T07:48:40;22.90;68.90
10316;DHT22;5203;48.976;8.306;2023-06-24T07:51:06;23.10;68.10
10316;DHT22;5203;48.976;8.306;2023-06-24T07:53:32;23.10;68.10
10316;DHT22;5203;48.976;8.306;2023-06-24T07:55:59;23.20;62.60
10316;DHT22;5203;48.976;8.306;2023-06-24T07:58:24;23.20;62.60
10316;DHT22;5203;48.976;8.306;2023-06-24T08:00:50;23.20;62.30
10316;DHT22;5203;48.976;8.306;2023-06-24T08:03:16;23.30;61.90
10316;DHT22;5203;48.976;8.306;2023-06-24T08:05:42;23.40;61.80
10316;DHT22;5203;48.976;8.306;2023-06-24T08:08:08;23.50;59.90
10316;DHT22;5203;48.976;8.306;2023-06-24T08:10:34;23.50;59.30
10316;DHT22;5203;48.976;8.306;2023-06-24T08:12:59;23.60;59.40
10316;DHT22;5203;48.976;8.306;2023-06-24T08:15:25;23.80;57.80
10316;DHT22;5203;48.976;8.306;2023-06-24T08:17:51;23.90;57.40
10316;DHT22;5203;48.976;8.306;2023-06-24T08:20:17;24.00;58.10
10316;DHT22;5203;48.976;8.306;2023-06-24T08:22:44;24.10;57.40
10316;DHT22;5203;48.976;8.306;2023-06-24T08:25:10;24.30;56.30
10316;DHT22;5203;48.976;8.306;2023-06-24T08:27:35;24.40;55.60
10316;DHT22;5203;48.976;8.306;2023-06-24T08:30:03;24.50;55.10
10316;DHT22;5203;48.976;8.306;2023-06-24T08:32:29;24.70;54.60
10316;DHT22;5203;48.976;8.306;2023-06-24T08:34:55;24.70;54.00
10316;DHT22;5203;48.976;8.306;2023-06-24T08:37:20;24.80;54.00
10316;DHT22;5203;48.976;8.306;2023-06-24T08:39:46;25.00;55.50
10316;DHT22;5203;48.976;8.306;2023-06-24T08:42:12;25.00;53.00
10316;DHT22;5203;48.976;8.306;2023-06-24T08:44:38;25.20;51.10
10316;DHT22;5203;48.976;8.306;2023-06-24T08:47:04;25.40;52.20
10316;DHT22;5203;48.976;8.306;2023-06-24T08:49:30;25.60;49.00
10316;DHT22;5203;48.976;8.306;2023-06-24T08:52:03;25.60;48.10
10316;DHT22;5203;48.976;8.306;2023-06-24T08:54:31;25.80;48.70
10316;DHT22;5203;48.976;8.306;2023-06-24T08:56:57;25.80;47.80
10316;DHT22;5203;48.976;8.306;2023-06-24T08:59:23;25.90;47.50
10316;DHT22;5203;48.976;8.306;2023-06-24T09:01:50;25.80;47.10
10316;DHT22;5203;48.976;8.306;2023-06-24T09:04:17;25.80;46.30
10316;DHT22;5203;48.976;8.306;2023-06-24T09:06:42;26.10;47.20
10316;DHT22;5203;48.976;8.306;2023-06-24T09:09:22;26.30;47.50
10316;DHT22;5203;48.976;8.306;2023-06-24T09:11:55;26.40;39.80
10316;DHT22;5203;48.976;8.306;2023-06-24T09:14:21;26.50;39.40
10316;DHT22;5203;48.976;8.306;2023-06-24T09:16:58;26.80;39.10
10316;DHT22;5203;48.976;8.306;2023-06-24T09:19:27;26.70;41.40
10316;DHT22;5203;48.976;8.306;2023-06-24T09:21:57;26.90;41.30
10316;DHT22;5203;48.976;8.306;2023-06-24T09:24:33;27.00;39.20
10316;DHT22;5203;48.976;8.306;2023-06-24T09:26:59;27.10;37.60
10316;DHT22;5203;48.976;8.306;2023-06-24T09:29:31;27.20;38.10
10316;DHT22;5203;48.976;8.306;2023-06-24T09:31:57;27.40;37.90
10316;DHT22;5203;48.976;8.306;2023-06-24T09:34:24;27.50;38.90
10316;DHT22;5203;48.976;8.306;2023-06-24T09:36:55;27.60;36.70
10316;DHT22;5203;48.976;8.306;2023-06-24T09:39:22;27.70;34.80
10316;DHT22;5203;48.976;8.306;2023-06-24T09:41:54;27.90;35.50
10316;DHT22;5203;48.976;8.306;2023-06-24T09:44:19;28.10;35.20
10316;DHT22;5203;48.976;8.306;2023-06-24T09:46:45;28.20;33.30
10316;DHT22;5203;48.976;8.306;2023-06-24T09:49:11;28.20;33.70
10316;DHT22;5203;48.976;8.306;2023-06-24T09:51:43;28.00;33.30
10316;DHT22;5203;48.976;8.306;2023-06-24T09:54:12;28.30;33.70
10316;DHT22;5203;48.976;8.306;2023-06-24T09:56:52;28.50;32.50
10316;DHT22;5203;48.976;8.306;2023-06-24T09:59:20;28.50;33.00
10316;DHT22;5203;48.976;8.306;2023-06-24T10:01:47;28.60;33.70
10316;DHT22;5203;48.976;8.306;2023-06-24T10:04:17;28.60;33.80
10316;DHT22;5203;48.976;8.306;2023-06-24T10:06:44;28.40;33.30
10316;DHT22;5203;48.976;8.306;2023-06-24T10:09:10;28.60;33.00
10316;DHT22;5203;48.976;8.306;2023-06-24T10:11:39;28.80;33.30
10316;DHT22;5203;48.976;8.306;2023-06-24T10:14:04;29.00;32.60
10316;DHT22;5203;48.976;8.306;2023-06-24T10:16:30;29.10;32.40
10316;DHT22;5203;48.976;8.306;2023-06-24T10:19:03;29.10;33.40
10316;DHT22;5203;48.976;8.306;2023-06-24T10:21:51;29.40;32.80
10316;DHT22;5203;48.976;8.306;2023-06-24T10:24:31;29.30;32.90
10316;DHT22;5203;48.976;8.306;2023-06-24T10:29:31;29.30;32.50
10316;DHT22;5203;48.976;8.306;2023-06-24T10:32:01;29.40;33.40
10316;DHT22;5203;48.976;8.306;2023-06-24T10:39:57;30.00;29.90
10316;DHT22;5203;48.976;8.306;2023-06-24T10:42:29;30.30;28.80
10316;DHT22;5203;48.976;8.306;2023-06-24T10:47:34;30.50;29.80
10316;DHT22;5203;48.976;8.306;2023-06-24T10:50:00;30.80;29.50
10316;DHT22;5203;48.976;8.306;2023-06-24T10:52:25;30.80;29.10
10316;DHT22;5203;48.976;8.306;2023-06-24T10:54:52;30.90;28.70
10316;DHT22;5203;48.976;8.306;2023-06-24T10:57:25;30.10;29.00
10316;DHT22;5203;48.976;8.306;2023-06-24T10:59:52;30.00;30.00
10316;DHT22;5203;48.976;8.306;2023-06-24T11:02:24;30.50;29.40
10316;DHT22;5203;48.976;8.306;2023-06-24T11:04:50;30.90;29.20
10316;DHT22;5203;48.976;8.306;2023-06-24T11:07:22;30.90;28.60
10316;DHT22;5203;48.976;8.306;2023-06-24T11:09:51;30.80;27.90
10316;DHT22;5203;48.976;8.306;2023-06-24T11:12:18;30.90;27.70
10316;DHT22;5203;48.976;8.306;2023-06-24T11:14:44;31.30;28.00
10316;DHT22;5203;48.976;8.306;2023-06-24T11:17:09;31.40;27.00
10316;DHT22;5203;48.976;8.306;2023-06-24T11:19:35;31.70;27.20
10316;DHT22;5203;48.976;8.306;2023-06-24T11:22:06;31.50;26.90
10316;DHT22;5203;48.976;8.306;2023-06-24T11:24:33;31.00;28.40
10316;DHT22;5203;48.976;8.306;2023-06-24T11:26:58;31.00;27.90
10316;DHT22;5203;48.976;8.306;2023-06-24T11:29:24;31.00;28.00
10316;DHT22;5203;48.976;8.306;2023-06-24T11:31:53;31.40;28.10
10316;DHT22;5203;48.976;8.306;2023-06-24T11:34:19;31.70;28.40
10316;DHT22;5203;48.976;8.306;2023-06-24T11:36:45;32.10;27.90
10316;DHT22;5203;48.976;8.306;2023-06-24T11:39:40;32.40;27.00
10316;DHT22;5203;48.976;8.306;2023-06-24T11:42:09;32.20;27.00
10316;DHT22;5203;48.976;8.306;2023-06-24T11:44:35;32.30;26.20
10316;DHT22;5203;48.976;8.306;2023-06-24T11:47:08;32.60;26.80
10316;DHT22;5203;48.976;8.306;2023-06-24T11:49:55;32.70;26.40
10316;DHT22;5203;48.976;8.306;2023-06-24T11:52:43;32.60;25.90
10316;DHT22;5203;48.976;8.306;2023-06-24T11:55:16;32.20;26.40
10316;DHT22;5203;48.976;8.306;2023-06-24T11:58:03;32.60;25.50
10316;DHT22;5203;48.976;8.306;2023-06-24T12:00:36;33.10;25.90
10316;DHT22;5203;48.976;8.306;2023-06-24T12:03:06;33.00;26.40
10316;DHT22;5203;48.976;8.306;2023-06-24T12:05:33;33.10;25.70
10316;DHT22;5203;48.976;8.306;2023-06-24T12:08:01;32.60;25.60
10316;DHT22;5203;48.976;8.306;2023-06-24T12:10:28;33.00;25.90
10316;DHT22;5203;48.976;8.306;2023-06-24T12:12:55;33.20;25.50
10316;DHT22;5203;48.976;8.306;2023-06-24T12:15:21;33.40;25.40
10316;DHT22;5203;48.976;8.306;2023-06-24T12:17:47;33.40;24.70
10316;DHT22;5203;48.976;8.306;2023-06-24T12:20:14;33.90;25.00
10316;DHT22;5203;48.976;8.306;2023-06-24T12:22:39;34.30;24.60
10316;DHT22;5203;48.976;8.306;2023-06-24T12:25:06;33.70;24.10
10316;DHT22;5203;48.976;8.306;2023-06-24T12:27:31;33.80;24.60
10316;DHT22;5203;48.976;8.306;2023-06-24T12:29:57;33.90;25.00
10316;DHT22;5203;48.976;8.306;2023-06-24T12:32:22;34.00;24.90
10316;DHT22;5203;48.976;8.306;2023-06-24T12:34:48;34.30;24.70
10316;DHT22;5203;48.976;8.306;2023-06-24T12:37:14;34.40;24.60
10316;DHT22;5203;48.976;8.306;2023-06-24T12:39:39;33.90;23.20
10316;DHT22;5203;48.976;8.306;2023-06-24T12:42:05;33.60;24.20
10316;DHT22;5203;48.976;8.306;2023-06-24T12:44:31;33.80;24.20
10316;DHT22;5203;48.976;8.306;2023-06-24T12:46:57;34.10;24.00
10316;DHT22;5203;48.976;8.306;2023-06-24T12:49:22;33.90;23.90
10316;DHT22;5203;48.976;8.306;2023-06-24T12:51:48;33.90;23.80
10316;DHT22;5203;48.976;8.306;2023-06-24T12:54:14;33.50;24.60
10316;DHT22;5203;48.976;8.306;2023-06-24T12:56:39;33.90;24.70
10316;DHT22;5203;48.976;8.306;2023-06-24T12:59:05;34.00;24.60
10316;DHT22;5203;48.976;8.306;2023-06-24T13:01:31;34.00;24.90
10316;DHT22;5203;48.976;8.306;2023-06-24T13:03:57;34.60;24.40
10316;DHT22;5203;48.976;8.306;2023-06-24T13:06:22;35.00;23.80
10316;DHT22;5203;48.976;8.306;2023-06-24T13:08:48;35.30;23.50
10316;DHT22;5203;48.976;8.306;2023-06-24T13:11:13;34.30;23.70
10316;DHT22;5203;48.976;8.306;2023-06-24T13:13:39;34.70;24.00
10316;DHT22;5203;48.976;8.306;2023-06-24T13:16:05;34.70;23.40
10316;DHT22;5203;48.976;8.306;2023-06-24T13:18:30;34.50;24.40
10316;DHT22;5203;48.976;8.306;2023-06-24T13:20:56;34.90;23.40
10316;DHT22;5203;48.976;8.306;2023-06-24T13:23:21;35.40;23.20
10316;DHT22;5203;48.976;8.306;2023-06-24T13:25:47;35.50;22.20
10316;DHT22;5203;48.976;8.306;2023-06-24T13:28:13;35.90;22.50
10316;DHT22;5203;48.976;8.306;2023-06-24T13:30:39;35.80;22.50
10316;DHT22;5203;48.976;8.306;2023-06-24T13:33:04;35.60;21.30
10316;DHT22;5203;48.976;8.306;2023-06-24T13:35:30;35.30;21.80
10316;DHT22;5203;48.976;8.306;2023-06-24T13:37:55;35.60;21.80
10316;DHT22;5203;48.976;8.306;2023-06-24T13:40:23;35.40;21.80
10316;DHT22;5203;48.976;8.306;2023-06-24T13:42:50;35.70;21.70
10316;DHT22;5203;48.976;8.306;2023-06-24T13:45:15;36.00;21.40
10316;DHT22;5203;48.976;8.306;2023-06-24T13:47:41;36.00;21.40
10316;DHT22;5203;48.976;8.306;2023-06-24T13:50:07;36.20;21.90
10316;DHT22;5203;48.976;8.306;2023-06-24T13:52:34;35.70;22.20
10316;DHT22;5203;48.976;8.306;2023-06-24T13:55:00;35.90;22.20
10316;DHT22;5203;48.976;8.306;2023-06-24T13:57:25;36.20;22.00
10316;DHT22;5203;48.976;8.306;2023-06-24T13:59:51;36.60;21.60
10316;DHT22;5203;48.976;8.306;2023-06-24T14:02:17;36.60;21.50
10316;DHT22;5203;48.976;8.306;2023-06-24T14:04:43;36.90;21.90
10316;DHT22;5203;48.976;8.306;2023-06-24T14:07:09;37.00;21.10
10316;DHT22;5203;48.976;8.306;2023-06-24T14:09:37;36.90;20.50
10316;DHT22;5203;48.976;8.306;2023-06-24T14:12:04;36.60;20.40
10316;DHT22;5203;48.976;8.306;2023-06-24T14:14:29;36.00;20.90
10316;DHT22;5203;48.976;8.306;2023-06-24T14:16:55;36.60;20.70
10316;DHT22;5203;48.976;8.306;2023-06-24T14:19:21;36.50;20.10
10316;DHT22;5203;48.976;8.306;2023-06-24T14:21:46;36.80;19.80
10316;DHT22;5203;48.976;8.306;2023-06-24T14:24:12;37.00;20.80
10316;DHT22;5203;48.976;8.306;2023-06-24T14:26:38;37.10;21.50
10316;DHT22;5203;48.976;8.306;2023-06-24T14:29:03;36.90;20.10
10316;DHT22;5203;48.976;8.306;2023-06-24T14:31:30;36.60;20.60
10316;DHT22;5203;48.976;8.306;2023-06-24T14:33:55;36.40;20.80
10316;DHT22;5203;48.976;8.306;2023-06-24T14:36:21;36.70;19.90
10316;DHT22;5203;48.976;8.306;2023-06-24T14:38:46;37.00;20.00
10316;DHT22;5203;48.976;8.306;2023-06-24T14:41:12;37.20;20.10
10316;DHT22;5203;48.976;8.306;2023-06-24T14:43:38;37.70;19.60
10316;DHT22;5203;48.976;8.306;2023-06-24T14:46:03;37.90;19.60
10316;DHT22;5203;48.976;8.306;2023-06-24T14:48:29;38.30;19.80
10316;DHT22;5203;48.976;8.306;2023-06-24T14:50:55;37.90;19.40
10316;DHT22;5203;48.976;8.306;2023-06-24T14:53:20;37.30;20.20
10316;DHT22;5203;48.976;8.306;2023-06-24T14:55:46;37.30;20.20
10316;DHT22;5203;48.976;8.306;2023-06-24T14:58:12;37.20;19.70
10316;DHT22;5203;48.976;8.306;2023-06-24T15:00:38;37.40;20.30
10316;DHT22;5203;48.976;8.306;2023-06-24T15:03:03;37.70;19.40
10316;DHT22;5203;48.976;8.306;2023-06-24T15:05:29;37.60;19.00
10316;DHT22;5203;48.976;8.306;2023-06-24T15:07:55;37.70;19.10
10316;DHT22;5203;48.976;8.306;2023-06-24T15:10:20;37.90;18.40
10316;DHT22;5203;48.976;8.306;2023-06-24T15:12:46;37.80;19.10
10316;DHT22;5203;48.976;8.306;2023-06-24T15:15:12;37.60;18.90
10316;DHT22;5203;48.976;8.306;2023-06-24T15:17:37;37.60;19.60
10316;DHT22;5203;48.976;8.306;2023-06-24T15:20:09;37.60;19.20
10316;DHT22;5203;48.976;8.306;2023-06-24T15:22:35;37.10;19.80
10316;DHT22;5203;48.976;8.306;2023-06-24T15:25:00;37.50;19.80
10316;DHT22;5203;48.976;8.306;2023-06-24T15:27:26;36.80;19.50
10316;DHT22;5203;48.976;8.306;2023-06-24T15:29:51;36.90;19.90
10316;DHT22;5203;48.976;8.306;2023-06-24T15:32:17;37.60;19.30
10316;DHT22;5203;48.976;8.306;2023-06-24T15:34:43;37.80;19.00
10316;DHT22;5203;48.976;8.306;2023-06-24T15:37:09;37.70;19.10
10316;DHT22;5203;48.976;8.306;2023-06-24T15:39:34;37.70;19.30
10316;DHT22;5203;48.976;8.306;2023-06-24T15:42:00;37.80;18.90
10316;DHT22;5203;48.976;8.306;2023-06-24T15:44:25;37.60;19.40
10316;DHT22;5203;48.976;8.306;2023-06-24T15:46:51;37.90;19.00
10316;DHT22;5203;48.976;8.306;2023-06-24T15:49:17;37.70;19.00
10316;DHT22;5203;48.976;8.306;2023-06-24T15:51:43;37.80;19.10
10316;DHT22;5203;48.976;8.306;2023-06-24T15:54:09;38.30;19.00
10316;DHT22;5203;48.976;8.306;2023-06-24T15:56:35;38.20;19.20
10316;DHT22;5203;48.976;8.306;2023-06-24T15:59:01;38.10;19.40
10316;DHT22;5203;48.976;8.306;2023-06-24T16:01:26;37.80;19.40
10316;DHT22;5203;48.976;8.306;2023-06-24T16:03:52;37.40;19.90
10316;DHT22;5203;48.976;8.306;2023-06-24T16:06:18;37.20;20.40
10316;DHT22;5203;48.976;8.306;2023-06-24T16:08:44;37.40;20.30
10316;DHT22;5203;48.976;8.306;2023-06-24T16:11:10;37.50;20.00